Open Full Screen Window  High Contrast Mode
Wind Gusting 00 knots
06
February 07, 2016 6:45 AM CST
Weather Information
Wind Direction
  200 °
Wind Speed
  06 kt (7 mph)
Wind Gust
  00 kt (0 mph)
Altimeter
30.03 in
Visibility
10 SM
Temperature
01° C
34° F
Dewpoint
-03° C
27° F
Humidity
75%
Sky Condition
Clear
VFR

METAR KAXV 071245Z AUTO 20006KT 10SM CLR 01/M03 A3003 RMK AO2

*Background is not an actual portrayal of the airport.